Muscat, Oman
Current Conditions -  °F | °C
As of 4:50 PM on Thursday 27 Nov 2014 (Local Time) from OOMS Reporting Station
Clear Clear  
Wind Chill: 28°   Ceiling: Unl
Heat Index: 28°   Visibility: 6mi
Dew Point: 16°   Wind: 9mph
Humidity: 48%   Direction: 300°WNW
Pressure: 29.91"   Gusts: NA
Location:  23.61°N, 58.54°E
Report Text: OOMS 271250Z 30008KT 250V340 CAVOK 28/16 Q1013 NOSIG
Loading
Personal Weather Stations






























Interactive Weather Map New forecast layout! Learn more

10-Day Weather Forecast

Advertisements
Track Severe Weather on mobile